sensor_id;sensor_type;location;lat;lon;timestamp;pressure;altitude;pressure_sealevel;temperature;humidity
25084;BME280;13075;55.682;37.564;2023-05-02T00:02:24;99994.25;;;10.80;87.15
25084;BME280;13075;55.682;37.564;2023-05-02T00:04:50;100000.19;;;10.96;86.44
25084;BME280;13075;55.682;37.564;2023-05-02T00:07:15;99994.00;;;10.96;86.39
25084;BME280;13075;55.682;37.564;2023-05-02T00:09:41;100008.22;;;10.75;90.31
25084;BME280;13075;55.682;37.564;2023-05-02T00:12:06;100008.09;;;10.83;86.53
25084;BME280;13075;55.682;37.564;2023-05-02T00:14:31;100006.50;;;10.89;86.29
25084;BME280;13075;55.682;37.564;2023-05-02T00:16:57;100011.22;;;11.08;86.47
25084;BME280;13075;55.682;37.564;2023-05-02T00:19:22;100002.69;;;10.98;84.32
25084;BME280;13075;55.682;37.564;2023-05-02T00:21:48;100011.34;;;10.79;86.28
25084;BME280;13075;55.682;37.564;2023-05-02T00:24:14;100013.78;;;10.59;89.53
25084;BME280;13075;55.682;37.564;2023-05-02T00:26:39;100027.88;;;10.32;94.38
25084;BME280;13075;55.682;37.564;2023-05-02T00:29:04;100024.31;;;10.82;88.96
25084;BME280;13075;55.682;37.564;2023-05-02T00:31:31;100029.78;;;10.74;88.27
25084;BME280;13075;55.682;37.564;2023-05-02T00:33:56;100026.50;;;10.93;87.97
25084;BME280;13075;55.682;37.564;2023-05-02T00:36:22;100028.97;;;10.94;86.89
25084;BME280;13075;55.682;37.564;2023-05-02T00:38:47;100033.16;;;10.97;87.33
25084;BME280;13075;55.682;37.564;2023-05-02T00:41:13;100037.56;;;10.69;87.86
25084;BME280;13075;55.682;37.564;2023-05-02T00:43:38;100034.56;;;10.57;88.33
25084;BME280;13075;55.682;37.564;2023-05-02T00:46:05;100045.38;;;10.34;88.98
25084;BME280;13075;55.682;37.564;2023-05-02T00:48:31;100044.28;;;10.79;88.15
25084;BME280;13075;55.682;37.564;2023-05-02T00:50:57;100035.22;;;10.80;88.55
25084;BME280;13075;55.682;37.564;2023-05-02T00:53:23;100042.63;;;10.78;87.73
25084;BME280;13075;55.682;37.564;2023-05-02T00:55:48;100051.81;;;10.90;86.85
25084;BME280;13075;55.682;37.564;2023-05-02T00:58:14;100047.69;;;10.37;87.88
25084;BME280;13075;55.682;37.564;2023-05-02T01:06:04;100057.81;;;10.56;90.56
25084;BME280;13075;55.682;37.564;2023-05-02T01:11:01;100066.09;;;10.76;89.21
25084;BME280;13075;55.682;37.564;2023-05-02T01:13:31;100072.34;;;10.83;88.73
25084;BME280;13075;55.682;37.564;2023-05-02T01:15:57;100073.38;;;10.53;88.69
25084;BME280;13075;55.682;37.564;2023-05-02T01:18:24;100066.25;;;10.75;87.34
25084;BME280;13075;55.682;37.564;2023-05-02T01:20:52;100072.75;;;10.66;87.44
25084;BME280;13075;55.682;37.564;2023-05-02T01:23:24;100075.22;;;10.67;86.79
25084;BME280;13075;55.682;37.564;2023-05-02T01:26:02;100071.50;;;10.32;87.85
25084;BME280;13075;55.682;37.564;2023-05-02T01:30:59;100088.06;;;9.98;92.15
25084;BME280;13075;55.682;37.564;2023-05-02T01:33:25;100084.00;;;10.46;92.08
25084;BME280;13075;55.682;37.564;2023-05-02T01:35:52;100087.34;;;10.63;89.68
25084;BME280;13075;55.682;37.564;2023-05-02T01:38:19;100091.38;;;10.30;91.53
25084;BME280;13075;55.682;37.564;2023-05-02T01:40:47;100095.63;;;10.53;88.27
25084;BME280;13075;55.682;37.564;2023-05-02T01:43:14;100097.28;;;10.54;89.33
25084;BME280;13075;55.682;37.564;2023-05-02T01:45:42;100105.22;;;10.62;87.34
25084;BME280;13075;55.682;37.564;2023-05-02T01:48:08;100104.22;;;10.34;87.21
25084;BME280;13075;55.682;37.564;2023-05-02T01:50:35;100103.56;;;10.47;88.20
25084;BME280;13075;55.682;37.564;2023-05-02T01:53:01;100105.59;;;10.59;85.77
25084;BME280;13075;55.682;37.564;2023-05-02T01:55:28;100115.00;;;10.70;87.29
25084;BME280;13075;55.682;37.564;2023-05-02T01:57:54;100114.06;;;10.78;86.15
25084;BME280;13075;55.682;37.564;2023-05-02T02:00:20;100114.84;;;10.42;87.32
25084;BME280;13075;55.682;37.564;2023-05-02T02:02:47;100118.31;;;10.72;87.55
25084;BME280;13075;55.682;37.564;2023-05-02T02:05:14;100128.41;;;10.55;84.95
25084;BME280;13075;55.682;37.564;2023-05-02T02:07:40;100127.66;;;10.47;86.96
25084;BME280;13075;55.682;37.564;2023-05-02T02:10:07;100137.59;;;10.68;84.45
25084;BME280;13075;55.682;37.564;2023-05-02T02:12:39;100136.94;;;10.51;85.70
25084;BME280;13075;55.682;37.564;2023-05-02T02:17:48;100141.81;;;10.77;84.46
25084;BME280;13075;55.682;37.564;2023-05-02T02:20:14;100143.97;;;10.81;83.95
25084;BME280;13075;55.682;37.564;2023-05-02T02:22:40;100139.16;;;10.91;83.92
25084;BME280;13075;55.682;37.564;2023-05-02T02:25:07;100157.06;;;10.61;82.93
25084;BME280;13075;55.682;37.564;2023-05-02T02:27:35;100162.44;;;10.47;86.55
25084;BME280;13075;55.682;37.564;2023-05-02T02:30:01;100167.31;;;10.73;83.80
25084;BME280;13075;55.682;37.564;2023-05-02T02:32:26;100161.59;;;10.76;83.41
25084;BME280;13075;55.682;37.564;2023-05-02T02:34:52;100171.38;;;10.83;82.72
25084;BME280;13075;55.682;37.564;2023-05-02T02:37:19;100175.16;;;10.74;84.29
25084;BME280;13075;55.682;37.564;2023-05-02T02:40:07;100177.56;;;10.84;84.24
25084;BME280;13075;55.682;37.564;2023-05-02T02:42:36;100170.47;;;10.76;83.99
25084;BME280;13075;55.682;37.564;2023-05-02T02:47:35;100184.38;;;10.86;82.31
25084;BME280;13075;55.682;37.564;2023-05-02T02:52:45;100180.22;;;10.69;83.34
25084;BME280;13075;55.682;37.564;2023-05-02T02:55:18;100188.25;;;10.98;83.22
25084;BME280;13075;55.682;37.564;2023-05-02T02:57:59;100178.16;;;11.00;82.87
25084;BME280;13075;55.682;37.564;2023-05-02T03:00:26;100184.94;;;11.17;81.90
25084;BME280;13075;55.682;37.564;2023-05-02T03:02:53;100194.66;;;11.18;80.95
25084;BME280;13075;55.682;37.564;2023-05-02T03:05:19;100192.91;;;11.11;81.14
25084;BME280;13075;55.682;37.564;2023-05-02T03:07:45;100192.28;;;11.09;81.36
25084;BME280;13075;55.682;37.564;2023-05-02T03:10:10;100190.19;;;11.40;79.96
25084;BME280;13075;55.682;37.564;2023-05-02T03:12:37;100194.00;;;12.16;76.25
25084;BME280;13075;55.682;37.564;2023-05-02T03:17:51;100191.66;;;13.37;69.11
25084;BME280;13075;55.682;37.564;2023-05-02T03:20:16;100195.56;;;13.41;66.55
25084;BME280;13075;55.682;37.564;2023-05-02T03:22:42;100197.97;;;14.03;65.66
25084;BME280;13075;55.682;37.564;2023-05-02T03:25:07;100194.84;;;14.65;61.47
25084;BME280;13075;55.682;37.564;2023-05-02T03:27:33;100199.22;;;14.66;59.83
25084;BME280;13075;55.682;37.564;2023-05-02T03:30:02;100205.38;;;14.86;59.68
25084;BME280;13075;55.682;37.564;2023-05-02T03:32:30;100204.97;;;14.69;60.28
25084;BME280;13075;55.682;37.564;2023-05-02T03:34:55;100213.94;;;14.37;60.63
25084;BME280;13075;55.682;37.564;2023-05-02T03:37:26;100205.81;;;14.17;61.93
25084;BME280;13075;55.682;37.564;2023-05-02T03:39:52;100217.03;;;14.01;62.90
25084;BME280;13075;55.682;37.564;2023-05-02T03:42:18;100230.38;;;13.62;64.30
25084;BME280;13075;55.682;37.564;2023-05-02T03:44:43;100226.31;;;13.19;64.77
25084;BME280;13075;55.682;37.564;2023-05-02T03:47:09;100225.53;;;13.38;66.12
25084;BME280;13075;55.682;37.564;2023-05-02T03:49:38;100221.22;;;13.37;66.70
25084;BME280;13075;55.682;37.564;2023-05-02T03:52:05;100237.34;;;13.37;66.18
25084;BME280;13075;55.682;37.564;2023-05-02T03:54:33;100236.25;;;12.90;67.26
25084;BME280;13075;55.682;37.564;2023-05-02T03:56:59;100246.63;;;13.34;66.34
25084;BME280;13075;55.682;37.564;2023-05-02T03:59:31;100239.44;;;13.48;67.63
25084;BME280;13075;55.682;37.564;2023-05-02T04:01:56;100245.69;;;13.07;67.21
25084;BME280;13075;55.682;37.564;2023-05-02T04:04:31;100239.03;;;13.51;66.19
25084;BME280;13075;55.682;37.564;2023-05-02T04:06:57;100251.50;;;13.71;64.80
25084;BME280;13075;55.682;37.564;2023-05-02T04:09:22;100244.44;;;13.57;65.46
25084;BME280;13075;55.682;37.564;2023-05-02T04:12:02;100255.47;;;13.89;64.54
25084;BME280;13075;55.682;37.564;2023-05-02T04:14:29;100252.63;;;14.03;63.01
25084;BME280;13075;55.682;37.564;2023-05-02T04:16:55;100250.97;;;14.09;63.89
25084;BME280;13075;55.682;37.564;2023-05-02T04:19:41;100250.97;;;14.22;63.84
25084;BME280;13075;55.682;37.564;2023-05-02T04:22:07;100253.91;;;14.33;63.29
25084;BME280;13075;55.682;37.564;2023-05-02T04:24:37;100257.41;;;14.67;61.92
25084;BME280;13075;55.682;37.564;2023-05-02T04:27:03;100253.91;;;14.47;61.16
25084;BME280;13075;55.682;37.564;2023-05-02T04:29:28;100256.75;;;14.25;62.58
25084;BME280;13075;55.682;37.564;2023-05-02T04:31:54;100258.03;;;14.62;61.51
25084;BME280;13075;55.682;37.564;2023-05-02T04:34:23;100259.28;;;14.73;60.75
25084;BME280;13075;55.682;37.564;2023-05-02T04:36:48;100267.34;;;14.73;60.12
25084;BME280;13075;55.682;37.564;2023-05-02T04:39:19;100269.59;;;14.95;59.78
25084;BME280;13075;55.682;37.564;2023-05-02T04:41:55;100275.81;;;14.96;59.83
25084;BME280;13075;55.682;37.564;2023-05-02T04:44:22;100264.38;;;15.07;59.29
25084;BME280;13075;55.682;37.564;2023-05-02T04:46:48;100279.66;;;15.26;57.00
25084;BME280;13075;55.682;37.564;2023-05-02T04:49:13;100277.59;;;16.10;54.50
25084;BME280;13075;55.682;37.564;2023-05-02T04:51:39;100276.16;;;16.14;54.31
25084;BME280;13075;55.682;37.564;2023-05-02T04:54:05;100285.16;;;16.02;55.63
25084;BME280;13075;55.682;37.564;2023-05-02T04:56:31;100281.84;;;16.00;53.70
25084;BME280;13075;55.682;37.564;2023-05-02T04:58:56;100277.06;;;16.02;54.84
25084;BME280;13075;55.682;37.564;2023-05-02T05:01:22;100284.03;;;15.78;52.86
25084;BME280;13075;55.682;37.564;2023-05-02T05:03:49;100284.44;;;15.82;52.45
25084;BME280;13075;55.682;37.564;2023-05-02T05:06:16;100279.44;;;15.85;53.07
25084;BME280;13075;55.682;37.564;2023-05-02T05:08:42;100286.00;;;16.02;50.48
25084;BME280;13075;55.682;37.564;2023-05-02T05:11:10;100281.53;;;16.14;51.69
25084;BME280;13075;55.682;37.564;2023-05-02T05:13:35;100288.22;;;16.12;51.85
25084;BME280;13075;55.682;37.564;2023-05-02T05:16:02;100271.50;;;16.53;51.06
25084;BME280;13075;55.682;37.564;2023-05-02T05:18:30;100288.97;;;16.57;52.04
25084;BME280;13075;55.682;37.564;2023-05-02T05:20:56;100289.31;;;16.60;49.59
25084;BME280;13075;55.682;37.564;2023-05-02T05:23:22;100284.16;;;17.02;48.54
25084;BME280;13075;55.682;37.564;2023-05-02T05:25:47;100294.16;;;17.19;47.44
25084;BME280;13075;55.682;37.564;2023-05-02T05:28:15;100293.75;;;19.80;44.33
25084;BME280;13075;55.682;37.564;2023-05-02T05:30:42;100285.53;;;22.60;37.83
25084;BME280;13075;55.682;37.564;2023-05-02T05:33:11;100286.84;;;21.78;36.72
25084;BME280;13075;55.682;37.564;2023-05-02T05:35:37;100286.50;;;20.76;37.35
25084;BME280;13075;55.682;37.564;2023-05-02T05:38:02;100291.78;;;19.64;38.79
25084;BME280;13075;55.682;37.564;2023-05-02T05:40:30;100288.22;;;19.12;40.97
25084;BME280;13075;55.682;37.564;2023-05-02T05:42:57;100289.97;;;20.10;40.69
25084;BME280;13075;55.682;37.564;2023-05-02T05:45:27;100285.56;;;20.20;40.50
25084;BME280;13075;55.682;37.564;2023-05-02T05:47:53;100287.19;;;20.21;39.00
25084;BME280;13075;55.682;37.564;2023-05-02T05:50:18;100284.75;;;21.03;36.07
25084;BME280;13075;55.682;37.564;2023-05-02T05:52:45;100284.38;;;20.16;36.31
25084;BME280;13075;55.682;37.564;2023-05-02T05:55:10;100287.13;;;19.37;37.16
25084;BME280;13075;55.682;37.564;2023-05-02T05:57:36;100289.06;;;18.78;38.29
25084;BME280;13075;55.682;37.564;2023-05-02T06:00:02;100287.63;;;19.22;38.43
25084;BME280;13075;55.682;37.564;2023-05-02T06:02:40;100286.69;;;18.70;38.53
25084;BME280;13075;55.682;37.564;2023-05-02T06:05:08;100294.69;;;18.53;36.63
25084;BME280;13075;55.682;37.564;2023-05-02T06:07:33;100290.94;;;18.89;36.93
25084;BME280;13075;55.682;37.564;2023-05-02T06:09:59;100288.00;;;18.67;38.33
25084;BME280;13075;55.682;37.564;2023-05-02T06:12:26;100287.63;;;18.87;38.69
25084;BME280;13075;55.682;37.564;2023-05-02T06:14:51;100285.69;;;18.41;37.90
25084;BME280;13075;55.682;37.564;2023-05-02T06:17:17;100291.28;;;18.58;40.06
25084;BME280;13075;55.682;37.564;2023-05-02T06:19:43;100280.22;;;18.71;37.96
25084;BME280;13075;55.682;37.564;2023-05-02T06:22:10;100282.56;;;19.02;37.26
25084;BME280;13075;55.682;37.564;2023-05-02T06:24:36;100292.84;;;18.36;38.54
25084;BME280;13075;55.682;37.564;2023-05-02T06:27:01;100287.72;;;19.39;36.89
25084;BME280;13075;55.682;37.564;2023-05-02T06:29:27;100293.84;;;19.34;37.01
25084;BME280;13075;55.682;37.564;2023-05-02T06:31:55;100295.13;;;19.55;36.83
25084;BME280;13075;55.682;37.564;2023-05-02T06:34:21;100295.06;;;19.78;37.66
25084;BME280;13075;55.682;37.564;2023-05-02T06:36:47;100293.25;;;19.55;36.62
25084;BME280;13075;55.682;37.564;2023-05-02T06:39:12;100294.03;;;19.04;36.28
25084;BME280;13075;55.682;37.564;2023-05-02T06:41:37;100286.06;;;19.26;36.88
25084;BME280;13075;55.682;37.564;2023-05-02T06:44:03;100300.72;;;19.48;38.39
25084;BME280;13075;55.682;37.564;2023-05-02T06:46:28;100297.06;;;20.89;35.67
25084;BME280;13075;55.682;37.564;2023-05-02T06:48:55;100296.63;;;20.02;36.16
25084;BME280;13075;55.682;37.564;2023-05-02T06:51:20;100297.25;;;22.29;34.17
25084;BME280;13075;55.682;37.564;2023-05-02T06:53:46;100300.00;;;26.12;30.03
25084;BME280;13075;55.682;37.564;2023-05-02T06:56:12;100297.88;;;23.51;30.57
25084;BME280;13075;55.682;37.564;2023-05-02T06:58:37;100289.28;;;28.94;25.36
25084;BME280;13075;55.682;37.564;2023-05-02T07:01:03;100278.91;;;35.61;20.38
25084;BME280;13075;55.682;37.564;2023-05-02T07:03:28;100275.75;;;38.65;18.21
25084;BME280;13075;55.682;37.564;2023-05-02T07:05:54;100278.97;;;40.03;16.48
25084;BME280;13075;55.682;37.564;2023-05-02T07:08:19;100270.41;;;40.89;15.01
25084;BME280;13075;55.682;37.564;2023-05-02T07:10:46;100262.00;;;44.00;14.03
25084;BME280;13075;55.682;37.564;2023-05-02T07:13:12;100258.97;;;46.34;13.09
25084;BME280;13075;55.682;37.564;2023-05-02T07:15:37;100258.63;;;42.22;13.75
25084;BME280;13075;55.682;37.564;2023-05-02T07:18:03;100268.66;;;41.61;14.06
25084;BME280;13075;55.682;37.564;2023-05-02T07:20:28;100262.81;;;45.84;13.28
25084;BME280;13075;55.682;37.564;2023-05-02T07:22:54;100264.63;;;45.19;12.59
25084;BME280;13075;55.682;37.564;2023-05-02T07:25:19;100259.47;;;45.51;12.99
25084;BME280;13075;55.682;37.564;2023-05-02T07:27:45;100253.84;;;47.79;12.07
25084;BME280;13075;55.682;37.564;2023-05-02T07:30:10;100252.84;;;46.96;11.25
25084;BME280;13075;55.682;37.564;2023-05-02T07:32:36;100254.19;;;44.40;12.71
25084;BME280;13075;55.682;37.564;2023-05-02T07:35:02;100262.06;;;43.65;12.30
25084;BME280;13075;55.682;37.564;2023-05-02T07:37:31;100266.53;;;43.49;15.03
25084;BME280;13075;55.682;37.564;2023-05-02T07:39:56;100254.25;;;47.08;11.44
25084;BME280;13075;55.682;37.564;2023-05-02T07:42:21;100259.97;;;44.08;11.80
25084;BME280;13075;55.682;37.564;2023-05-02T07:44:47;100266.28;;;44.40;11.79
25084;BME280;13075;55.682;37.564;2023-05-02T07:47:13;100257.66;;;46.73;11.26
25084;BME280;13075;55.682;37.564;2023-05-02T07:49:38;100261.69;;;43.28;12.76
25084;BME280;13075;55.682;37.564;2023-05-02T07:52:03;100247.13;;;47.00;11.37
25084;BME280;13075;55.682;37.564;2023-05-02T07:54:29;100245.53;;;46.99;11.14
25084;BME280;13075;55.682;37.564;2023-05-02T07:56:54;100248.44;;;46.65;10.65
25084;BME280;13075;55.682;37.564;2023-05-02T07:59:22;100247.63;;;45.67;10.31
25084;BME280;13075;55.682;37.564;2023-05-02T08:01:48;100243.41;;;46.19;11.02
25084;BME280;13075;55.682;37.564;2023-05-02T08:04:13;100250.41;;;43.21;12.13
25084;BME280;13075;55.682;37.564;2023-05-02T08:06:39;100237.38;;;47.01;10.17
25084;BME280;13075;55.682;37.564;2023-05-02T08:09:05;100244.38;;;43.47;11.86
25084;BME280;13075;55.682;37.564;2023-05-02T08:11:30;100237.41;;;44.05;11.51
25084;BME280;13075;55.682;37.564;2023-05-02T08:13:55;100237.78;;;44.90;10.63
25084;BME280;13075;55.682;37.564;2023-05-02T08:16:21;100232.22;;;43.85;11.89
25084;BME280;13075;55.682;37.564;2023-05-02T08:18:46;100235.00;;;46.46;10.86
25084;BME280;13075;55.682;37.564;2023-05-02T08:21:12;100227.72;;;44.85;11.17
25084;BME280;13075;55.682;37.564;2023-05-02T08:23:39;100234.28;;;35.86;15.68
25084;BME280;13075;55.682;37.564;2023-05-02T08:26:05;100236.69;;;32.44;17.34
25084;BME280;13075;55.682;37.564;2023-05-02T08:28:32;100242.19;;;30.89;18.29
25084;BME280;13075;55.682;37.564;2023-05-02T08:30:57;100245.50;;;29.88;20.00
25084;BME280;13075;55.682;37.564;2023-05-02T08:33:23;100249.97;;;28.89;20.03
25084;BME280;13075;55.682;37.564;2023-05-02T08:35:48;100241.16;;;27.66;20.95
25084;BME280;13075;55.682;37.564;2023-05-02T08:38:14;100254.06;;;26.61;22.55
25084;BME280;13075;55.682;37.564;2023-05-02T08:40:39;100255.81;;;26.52;22.31
25084;BME280;13075;55.682;37.564;2023-05-02T08:43:05;100237.91;;;25.82;22.51
25084;BME280;13075;55.682;37.564;2023-05-02T08:45:34;100248.09;;;25.71;22.74
25084;BME280;13075;55.682;37.564;2023-05-02T08:48:07;100239.84;;;25.07;23.68
25084;BME280;13075;55.682;37.564;2023-05-02T08:53:03;100232.94;;;26.28;22.69
25084;BME280;13075;55.682;37.564;2023-05-02T08:55:29;100236.19;;;27.21;20.82
25084;BME280;13075;55.682;37.564;2023-05-02T08:57:56;100243.78;;;26.48;22.84
25084;BME280;13075;55.682;37.564;2023-05-02T09:00:22;100241.16;;;25.89;23.06
25084;BME280;13075;55.682;37.564;2023-05-02T09:03:05;100240.44;;;24.89;22.50
25084;BME280;13075;55.682;37.564;2023-05-02T09:05:32;100237.97;;;24.52;22.48
25084;BME280;13075;55.682;37.564;2023-05-02T09:08:00;100240.72;;;24.12;23.96
25084;BME280;13075;55.682;37.564;2023-05-02T09:10:27;100228.25;;;23.64;23.22
25084;BME280;13075;55.682;37.564;2023-05-02T09:12:52;100238.94;;;23.61;23.28
25084;BME280;13075;55.682;37.564;2023-05-02T09:15:18;100231.16;;;23.32;24.55
25084;BME280;13075;55.682;37.564;2023-05-02T09:17:44;100235.84;;;23.42;25.11
25084;BME280;13075;55.682;37.564;2023-05-02T09:20:14;100230.69;;;23.45;25.61
25084;BME280;13075;55.682;37.564;2023-05-02T09:22:52;100225.63;;;23.22;23.86
25084;BME280;13075;55.682;37.564;2023-05-02T09:25:18;100239.78;;;23.71;24.08
25084;BME280;13075;55.682;37.564;2023-05-02T09:30:22;100218.19;;;25.16;22.71
25084;BME280;13075;55.682;37.564;2023-05-02T09:32:48;100220.28;;;26.37;21.99
25084;BME280;13075;55.682;37.564;2023-05-02T09:35:19;100210.84;;;26.48;21.69
25084;BME280;13075;55.682;37.564;2023-05-02T09:37:51;100216.09;;;24.88;23.35
25084;BME280;13075;55.682;37.564;2023-05-02T09:40:17;100211.41;;;24.73;23.31
25084;BME280;13075;55.682;37.564;2023-05-02T09:42:42;100209.00;;;24.56;23.77
25084;BME280;13075;55.682;37.564;2023-05-02T09:45:08;100214.72;;;24.85;23.44
25084;BME280;13075;55.682;37.564;2023-05-02T09:47:33;100215.00;;;24.63;22.96
25084;BME280;13075;55.682;37.564;2023-05-02T09:50:00;100213.34;;;24.62;23.34
25084;BME280;13075;55.682;37.564;2023-05-02T09:52:26;100207.31;;;24.86;23.62
25084;BME280;13075;55.682;37.564;2023-05-02T09:54:51;100206.16;;;25.07;22.17
25084;BME280;13075;55.682;37.564;2023-05-02T09:57:17;100209.47;;;24.94;23.94
25084;BME280;13075;55.682;37.564;2023-05-02T09:59:55;100199.97;;;24.36;22.80
25084;BME280;13075;55.682;37.564;2023-05-02T10:02:21;100197.91;;;23.40;22.75
25084;BME280;13075;55.682;37.564;2023-05-02T10:04:48;100199.34;;;23.73;24.15
25084;BME280;13075;55.682;37.564;2023-05-02T10:07:14;100181.97;;;23.27;23.27
25084;BME280;13075;55.682;37.564;2023-05-02T10:09:42;100197.09;;;22.56;24.42
25084;BME280;13075;55.682;37.564;2023-05-02T10:12:07;100201.38;;;22.79;24.76
25084;BME280;13075;55.682;37.564;2023-05-02T10:14:39;100192.97;;;22.85;23.96
25084;BME280;13075;55.682;37.564;2023-05-02T10:17:11;100201.38;;;22.42;25.51
25084;BME280;13075;55.682;37.564;2023-05-02T10:19:49;100186.06;;;22.73;25.18
25084;BME280;13075;55.682;37.564;2023-05-02T10:22:18;100190.16;;;22.70;24.69
25084;BME280;13075;55.682;37.564;2023-05-02T10:24:43;100193.56;;;22.98;24.23
25084;BME280;13075;55.682;37.564;2023-05-02T10:27:10;100185.72;;;22.64;24.52
25084;BME280;13075;55.682;37.564;2023-05-02T10:29:36;100182.09;;;22.95;25.07
25084;BME280;13075;55.682;37.564;2023-05-02T10:32:03;100186.31;;;22.71;25.72
25084;BME280;13075;55.682;37.564;2023-05-02T10:34:31;100186.59;;;22.70;24.16
25084;BME280;13075;55.682;37.564;2023-05-02T10:36:56;100179.16;;;23.02;25.29
25084;BME280;13075;55.682;37.564;2023-05-02T10:39:25;100192.88;;;22.70;23.74
25084;BME280;13075;55.682;37.564;2023-05-02T10:41:51;100184.50;;;22.87;24.72
25084;BME280;13075;55.682;37.564;2023-05-02T10:44:31;100191.34;;;22.48;24.02
25084;BME280;13075;55.682;37.564;2023-05-02T10:46:56;100183.94;;;22.85;24.51
25084;BME280;13075;55.682;37.564;2023-05-02T10:49:22;100182.91;;;22.54;24.39
25084;BME280;13075;55.682;37.564;2023-05-02T10:51:51;100173.88;;;21.85;23.86
25084;BME280;13075;55.682;37.564;2023-05-02T10:54:23;100165.75;;;22.17;23.98
25084;BME280;13075;55.682;37.564;2023-05-02T10:59:42;100174.94;;;22.11;24.55
25084;BME280;13075;55.682;37.564;2023-05-02T11:04:58;100162.19;;;22.16;25.68
25084;BME280;13075;55.682;37.564;2023-05-02T11:07:27;100167.81;;;22.42;24.81
25084;BME280;13075;55.682;37.564;2023-05-02T11:10:10;100163.63;;;22.24;24.32
25084;BME280;13075;55.682;37.564;2023-05-02T11:12:45;100156.66;;;22.43;24.90
25084;BME280;13075;55.682;37.564;2023-05-02T11:15:14;100155.31;;;22.09;24.89
25084;BME280;13075;55.682;37.564;2023-05-02T11:18:00;100152.84;;;22.44;24.99
25084;BME280;13075;55.682;37.564;2023-05-02T11:20:26;100154.94;;;22.32;24.38
25084;BME280;13075;55.682;37.564;2023-05-02T11:22:52;100151.03;;;22.60;24.84
25084;BME280;13075;55.682;37.564;2023-05-02T11:25:28;100149.38;;;22.17;25.18
25084;BME280;13075;55.682;37.564;2023-05-02T11:27:53;100145.13;;;22.68;25.23
25084;BME280;13075;55.682;37.564;2023-05-02T11:30:35;100141.41;;;22.84;24.99
25084;BME280;13075;55.682;37.564;2023-05-02T11:35:29;100142.56;;;23.03;24.79
25084;BME280;13075;55.682;37.564;2023-05-02T11:37:59;100143.88;;;22.90;25.35
25084;BME280;13075;55.682;37.564;2023-05-02T11:40:25;100131.91;;;22.55;26.40
25084;BME280;13075;55.682;37.564;2023-05-02T11:42:51;100126.88;;;22.73;25.43
25084;BME280;13075;55.682;37.564;2023-05-02T11:45:16;100129.13;;;21.81;24.72
25084;BME280;13075;55.682;37.564;2023-05-02T11:47:43;100138.84;;;22.30;25.47
25084;BME280;13075;55.682;37.564;2023-05-02T11:50:10;100132.28;;;22.26;26.14
25084;BME280;13075;55.682;37.564;2023-05-02T11:52:36;100130.44;;;22.37;25.95
25084;BME280;13075;55.682;37.564;2023-05-02T11:55:04;100130.56;;;21.57;25.42
25084;BME280;13075;55.682;37.564;2023-05-02T11:57:32;100112.66;;;21.93;26.02
25084;BME280;13075;55.682;37.564;2023-05-02T11:59:57;100129.69;;;21.51;25.35
25084;BME280;13075;55.682;37.564;2023-05-02T12:02:36;100115.16;;;21.99;27.10
25084;BME280;13075;55.682;37.564;2023-05-02T12:05:02;100113.63;;;21.82;24.83
25084;BME280;13075;55.682;37.564;2023-05-02T12:07:40;100114.28;;;21.62;25.02
25084;BME280;13075;55.682;37.564;2023-05-02T12:10:06;100106.19;;;21.72;25.38
25084;BME280;13075;55.682;37.564;2023-05-02T12:12:32;100097.59;;;22.17;26.05
25084;BME280;13075;55.682;37.564;2023-05-02T12:14:57;100097.97;;;21.94;26.04
25084;BME280;13075;55.682;37.564;2023-05-02T12:17:23;100096.31;;;21.93;26.64
25084;BME280;13075;55.682;37.564;2023-05-02T12:19:49;100100.28;;;21.80;25.75
25084;BME280;13075;55.682;37.564;2023-05-02T12:22:15;100098.81;;;21.99;26.13
25084;BME280;13075;55.682;37.564;2023-05-02T12:24:40;100094.28;;;21.78;26.21
25084;BME280;13075;55.682;37.564;2023-05-02T12:27:08;100097.09;;;21.61;27.44
25084;BME280;13075;55.682;37.564;2023-05-02T12:29:40;100095.50;;;21.65;27.70
25084;BME280;13075;55.682;37.564;2023-05-02T12:32:06;100095.94;;;21.52;27.48
25084;BME280;13075;55.682;37.564;2023-05-02T12:34:34;100084.28;;;21.89;26.69
25084;BME280;13075;55.682;37.564;2023-05-02T12:37:01;100103.00;;;21.53;27.58
25084;BME280;13075;55.682;37.564;2023-05-02T12:39:40;100091.53;;;21.78;26.91
25084;BME280;13075;55.682;37.564;2023-05-02T12:42:13;100098.25;;;21.39;28.48
25084;BME280;13075;55.682;37.564;2023-05-02T12:44:39;100089.84;;;21.99;27.79
25084;BME280;13075;55.682;37.564;2023-05-02T12:47:06;100090.13;;;22.02;27.20
25084;BME280;13075;55.682;37.564;2023-05-02T12:49:32;100084.75;;;21.81;26.76
25084;BME280;13075;55.682;37.564;2023-05-02T12:51:57;100079.31;;;21.81;26.02
25084;BME280;13075;55.682;37.564;2023-05-02T12:54:23;100084.44;;;21.77;26.83
25084;BME280;13075;55.682;37.564;2023-05-02T12:56:50;100083.41;;;21.51;26.66
25084;BME280;13075;55.682;37.564;2023-05-02T12:59:26;100082.50;;;21.72;25.85
25084;BME280;13075;55.682;37.564;2023-05-02T13:01:52;100065.69;;;21.49;27.03
25084;BME280;13075;55.682;37.564;2023-05-02T13:04:17;100079.84;;;21.51;27.61
25084;BME280;13075;55.682;37.564;2023-05-02T13:06:43;100082.22;;;21.42;28.33
25084;BME280;13075;55.682;37.564;2023-05-02T13:09:08;100078.41;;;21.43;28.97
25084;BME280;13075;55.682;37.564;2023-05-02T13:11:33;100070.38;;;21.58;27.04
25084;BME280;13075;55.682;37.564;2023-05-02T13:13:59;100071.06;;;21.17;26.60
25084;BME280;13075;55.682;37.564;2023-05-02T13:16:25;100081.13;;;21.17;27.04